BDB weather

Bundaberg Airport
Bundaberg, Queensland, Australia

Public forecast

Using degrees Celsius for public forecast. Weather courtesy of forecast.io.

Current aviation weather report (METAR) for Bundaberg Airport

Retrieved 2019/10/17 21:00 UTC (37 minutes ago):

YBUD 172100Z AUTO 30005KT 9999 // NCD 23/19 Q1016

Closest aviation forecast (TAF) to Bundaberg Airport

Closest forecast is Gladstone Airport, 86.3 nm (159.8 km) NW. Retrieved 2019/10/17 18:00 UTC (4 hours ago):

TAF YGLA 171713Z 1718/1806 34008KT 9999 SCT018 FM180000 35008KT 9999 SCT030 FM180200 04011KT 9999 FEW030 TEMPO 1718/1722 9999 NSW BKN015